Time;durP1;ratioP1;P1;durP2;ratioP2;P2;SDS_P1;SDS_P2;PMS_P1;PMS_P2;Temp;Humidity;BMP_temperature;BMP_pressure;BME280_temperature;BME280_humidity;BME280_pressure;Samples;Min_cycle;Max_cycle;Signal;HPM_P1;HPM_P2
2021/09/23 00:00:12;;;;;;;28.35;17.60;;;13.60;72.10;;;;;;5037167;28;20435;-73
2021/09/23 00:05:20;;;;;;;25.70;16.95;;;13.60;73.50;;;;;;5041502;28;20438;-73
2021/09/23 00:07:48;;;;;;;31.23;18.08;;;13.60;74.30;;;;;;5041356;28;20030;-75
2021/09/23 00:10:28;;;;;;;26.08;17.52;;;13.60;74.90;;;;;;5039981;28;20543;-73
2021/09/23 00:12:56;;;;;;;26.38;16.63;;;13.50;73.60;;;;;;5041332;28;20085;-81
2021/09/23 00:15:22;;;;;;;26.13;16.73;;;13.50;73.40;;;;;;5040968;28;20024;-75
2021/09/23 00:17:52;;;;;;;25.20;14.98;;;13.50;73.00;;;;;;5041229;28;20030;-74
2021/09/23 00:20:21;;;;;;;28.42;17.85;;;13.40;71.40;;;;;;5041185;28;20425;-74
2021/09/23 00:22:47;;;;;;;25.30;16.02;;;13.40;75.30;;;;;;5040972;28;20036;-74
2021/09/23 00:25:13;;;;;;;28.05;17.35;;;13.40;73.90;;;;;;5041175;28;20871;-74
2021/09/23 00:27:39;;;;;;;27.67;17.40;;;13.30;74.10;;;;;;5040969;28;20530;-75
2021/09/23 00:30:07;;;;;;;29.10;17.38;;;13.30;74.30;;;;;;5040823;28;20017;-74
2021/09/23 00:32:33;;;;;;;26.30;15.35;;;13.30;74.90;;;;;;5039647;28;20108;-74
2021/09/23 00:34:59;;;;;;;23.55;15.32;;;13.20;72.80;;;;;;5039447;28;20519;-74
2021/09/23 00:37:25;;;;;;;28.02;17.10;;;13.20;74.20;;;;;;5039596;28;20025;-74
2021/09/23 00:39:51;;;;;;;28.55;16.75;;;13.20;74.70;;;;;;5040786;28;20021;-74
2021/09/23 00:42:17;;;;;;;27.67;17.88;;;13.20;74.20;;;;;;5040493;28;20061;-74
2021/09/23 00:44:54;;;;;;;26.83;16.13;;;13.20;74.00;;;;;;5039216;28;20079;-74
2021/09/23 00:47:20;;;;;;;26.63;15.85;;;13.10;72.80;;;;;;5040564;28;20476;-74
2021/09/23 00:49:45;;;;;;;28.33;17.85;;;13.10;74.50;;;;;;5040520;28;20044;-74
2021/09/23 00:52:11;;;;;;;25.52;17.38;;;13.10;75.70;;;;;;5040360;28;20109;-74
2021/09/23 00:54:37;;;;;;;29.55;18.98;;;13.10;75.00;;;;;;5040406;28;20545;-74
2021/09/23 00:57:03;;;;;;;30.67;17.20;;;13.10;76.50;;;;;;5040544;28;20025;-74
2021/09/23 00:59:29;;;;;;;25.73;16.15;;;13.00;76.40;;;;;;5040416;28;20030;-74
2021/09/23 01:01:55;;;;;;;24.88;14.23;;;13.00;73.90;;;;;;5040254;28;20391;-74
2021/09/23 01:04:20;;;;;;;23.27;14.18;;;12.90;72.70;;;;;;5040334;28;20044;-74
2021/09/23 01:06:50;;;;;;;22.35;14.65;;;12.90;72.10;;;;;;5040348;28;20100;-74
2021/09/23 01:09:17;;;;;;;23.75;13.85;;;12.90;72.00;;;;;;5040049;28;20458;-74
2021/09/23 01:11:43;;;;;;;22.20;13.85;;;12.80;71.30;;;;;;5040712;28;20395;-74
2021/09/23 01:14:10;;;;;;;23.65;14.18;;;12.80;71.30;;;;;;5038478;28;20427;-74
2021/09/23 01:16:37;;;;;;;22.73;14.40;;;12.70;71.00;;;;;;5039937;28;20476;-74
2021/09/23 01:19:03;;;;;;;25.38;16.85;;;12.70;71.50;;;;;;5040284;28;20081;-74
2021/09/23 01:21:29;;;;;;;23.40;14.07;;;12.70;73.70;;;;;;5039836;28;20098;-75
2021/09/23 01:23:55;;;;;;;22.17;13.90;;;12.70;72.20;;;;;;5040042;28;20029;-74
2021/09/23 01:26:32;;;;;;;22.27;13.85;;;12.60;71.50;;;;;;5038418;28;20116;-74
2021/09/23 01:28:57;;;;;;;24.27;13.68;;;12.60;71.10;;;;;;5039805;28;20087;-75
2021/09/23 01:31:24;;;;;;;20.75;13.32;;;12.50;71.00;;;;;;5039634;28;20100;-74
2021/09/23 01:33:50;;;;;;;23.13;14.32;;;12.50;71.20;;;;;;5039523;28;20025;-74
2021/09/23 01:36:16;;;;;;;20.05;12.77;;;12.50;70.70;;;;;;5039562;28;20021;-75
2021/09/23 01:38:43;;;;;;;22.05;13.10;;;12.50;70.80;;;;;;5039557;28;20049;-75
2021/09/23 01:41:10;;;;;;;21.40;12.30;;;12.40;70.60;;;;;;5039509;28;20053;-74
2021/09/23 01:43:36;;;;;;;21.20;12.32;;;12.30;70.30;;;;;;5039532;28;20464;-75
2021/09/23 01:46:02;;;;;;;20.92;13.40;;;12.30;70.30;;;;;;5039745;28;20031;-75
2021/09/23 01:48:28;;;;;;;23.80;14.15;;;12.30;70.50;;;;;;5038232;28;20030;-74
2021/09/23 01:50:53;;;;;;;25.10;14.77;;;12.30;71.40;;;;;;5039174;28;20400;-75
2021/09/23 01:53:19;;;;;;;24.40;13.77;;;12.30;72.70;;;;;;5039701;28;20111;-74
2021/09/23 01:55:45;;;;;;;30.50;16.67;;;12.30;71.70;;;;;;5039112;28;20092;-74
2021/09/23 01:58:11;;;;;;;28.65;16.88;;;12.30;74.00;;;;;;5039298;28;20021;-74
2021/09/23 02:00:37;;;;;;;30.05;18.00;;;12.30;76.30;;;;;;5038911;28;20484;-74
2021/09/23 02:03:03;;;;;;;29.33;17.42;;;12.30;76.20;;;;;;5039239;28;20033;-74
2021/09/23 02:05:29;;;;;;;30.30;17.42;;;12.30;76.10;;;;;;5039015;28;20018;-74
2021/09/23 02:07:55;;;;;;;32.25;18.55;;;12.30;75.70;;;;;;5039062;28;20530;-74
2021/09/23 02:10:20;;;;;;;33.90;17.70;;;12.30;76.00;;;;;;5038787;28;20080;-75
2021/09/23 02:12:46;;;;;;;26.45;16.10;;;12.30;75.30;;;;;;5039144;28;20033;-75
2021/09/23 02:15:12;;;;;;;27.58;16.25;;;12.30;74.90;;;;;;5038621;28;20025;-75
2021/09/23 02:17:38;;;;;;;28.80;16.23;;;12.30;74.50;;;;;;5038967;28;20037;-74
2021/09/23 02:20:04;;;;;;;28.17;15.20;;;12.30;74.00;;;;;;5038737;28;20036;-74
2021/09/23 02:22:32;;;;;;;24.55;15.25;;;12.20;73.30;;;;;;5038716;28;20555;-74
2021/09/23 02:24:58;;;;;;;28.15;16.20;;;12.20;73.30;;;;;;5038169;28;20021;-74
2021/09/23 02:27:24;;;;;;;27.80;16.38;;;12.20;73.30;;;;;;5038978;28;20063;-74
2021/09/23 02:29:50;;;;;;;23.75;13.45;;;12.10;72.40;;;;;;5038285;28;20030;-74
2021/09/23 02:32:15;;;;;;;26.35;14.45;;;12.10;72.20;;;;;;5038535;28;20021;-74
2021/09/23 02:34:41;;;;;;;24.17;13.40;;;12.10;71.60;;;;;;5038392;28;20105;-74
2021/09/23 02:37:07;;;;;;;24.40;13.93;;;12.00;71.50;;;;;;5038589;28;20057;-75
2021/09/23 02:39:34;;;;;;;22.67;13.02;;;11.90;71.50;;;;;;5038515;28;20094;-74
2021/09/23 02:42:00;;;;;;;23.38;13.68;;;11.90;71.30;;;;;;5038571;28;20032;-75
2021/09/23 02:44:26;;;;;;;22.60;14.07;;;11.90;71.20;;;;;;5038029;28;20400;-75
2021/09/23 02:46:52;;;;;;;23.25;13.50;;;11.80;71.50;;;;;;5038537;28;20112;-75
2021/09/23 02:49:18;;;;;;;24.10;14.10;;;11.80;71.50;;;;;;5038183;28;20104;-75
2021/09/23 02:51:44;;;;;;;24.48;14.70;;;11.80;71.30;;;;;;5038254;28;20030;-75
2021/09/23 02:54:09;;;;;;;22.80;13.45;;;11.80;71.50;;;;;;5036672;28;20028;-75
2021/09/23 02:56:35;;;;;;;23.13;13.93;;;11.80;71.50;;;;;;5038192;28;20024;-75
2021/09/23 02:59:01;;;;;;;20.23;12.35;;;11.70;71.70;;;;;;5037794;28;20396;-75
2021/09/23 03:01:27;;;;;;;22.10;13.60;;;11.70;71.20;;;;;;5038154;28;20026;-75
2021/09/23 03:03:53;;;;;;;20.05;12.45;;;11.70;72.10;;;;;;5037997;28;20026;-75
2021/09/23 03:06:19;;;;;;;20.55;13.18;;;11.80;71.60;;;;;;5038054;28;20041;-75
2021/09/23 03:08:45;;;;;;;23.00;13.90;;;11.80;73.90;;;;;;5037573;28;20020;-75
2021/09/23 03:11:10;;;;;;;20.77;13.90;;;11.90;75.50;;;;;;5037955;28;20036;-75
2021/09/23 03:13:36;;;;;;;20.13;13.10;;;11.80;76.30;;;;;;5037586;28;20088;-75
2021/09/23 03:16:02;;;;;;;21.92;13.68;;;11.90;76.00;;;;;;5037893;28;20033;-75
2021/09/23 03:18:28;;;;;;;19.20;13.27;;;11.90;77.70;;;;;;5037700;28;20022;-75
2021/09/23 03:20:54;;;;;;;20.08;12.38;;;11.90;77.20;;;;;;5037839;28;20033;-75
2021/09/23 03:23:20;;;;;;;19.17;11.93;;;11.90;77.80;;;;;;5037800;28;20025;-75
2021/09/23 03:25:46;;;;;;;16.25;11.27;;;11.90;78.00;;;;;;5037576;28;20051;-75
2021/09/23 03:28:13;;;;;;;16.02;10.70;;;11.90;77.10;;;;;;5037552;28;20032;-75
2021/09/23 03:30:39;;;;;;;15.75;11.55;;;11.90;77.30;;;;;;5037350;28;20088;-75
2021/09/23 03:33:06;;;;;;;16.67;10.57;;;11.90;76.50;;;;;;5037382;28;20693;-75
2021/09/23 03:35:32;;;;;;;15.95;10.15;;;11.80;75.60;;;;;;5037283;28;20646;-75
2021/09/23 03:37:58;;;;;;;14.80;10.13;;;11.80;74.20;;;;;;5036627;28;20017;-75
2021/09/23 03:40:25;;;;;;;15.57;10.48;;;11.70;73.70;;;;;;5037573;28;20029;-75
2021/09/23 03:42:51;;;;;;;14.68;9.80;;;11.60;73.10;;;;;;5036081;28;20026;-75
2021/09/23 03:45:17;;;;;;;14.65;9.95;;;11.60;73.20;;;;;;5037247;28;20029;-75
2021/09/23 03:47:44;;;;;;;14.55;9.65;;;11.50;72.70;;;;;;5037338;28;20473;-75
2021/09/23 03:50:11;;;;;;;14.07;8.98;;;11.50;72.80;;;;;;5037312;28;20108;-75
2021/09/23 03:52:38;;;;;;;14.90;10.07;;;11.40;72.70;;;;;;5037158;28;20024;-75
2021/09/23 03:55:04;;;;;;;15.32;9.50;;;11.40;73.00;;;;;;5037273;28;20463;-74
2021/09/23 03:57:30;;;;;;;13.88;9.23;;;11.30;72.50;;;;;;5037321;28;20029;-74
2021/09/23 03:59:56;;;;;;;17.63;11.77;;;11.30;72.30;;;;;;5037126;28;20026;-74
2021/09/23 04:02:23;;;;;;;16.50;11.48;;;11.30;74.30;;;;;;5037171;28;20400;-75
2021/09/23 04:04:50;;;;;;;18.33;11.65;;;11.30;75.40;;;;;;5037363;28;20029;-75
2021/09/23 04:07:16;;;;;;;18.15;11.85;;;11.30;75.80;;;;;;5037105;28;20472;-75
2021/09/23 04:09:41;;;;;;;16.58;10.90;;;11.30;76.40;;;;;;5036880;28;20103;-76
2021/09/23 04:12:07;;;;;;;17.05;11.88;;;11.30;75.60;;;;;;5037285;28;20030;-75
2021/09/23 04:14:33;;;;;;;17.50;11.45;;;11.20;75.90;;;;;;5036914;28;20472;-75
2021/09/23 04:16:59;;;;;;;15.05;10.43;;;11.20;75.80;;;;;;5036979;28;20411;-75
2021/09/23 04:19:25;;;;;;;15.43;10.23;;;11.20;74.50;;;;;;5037229;28;20025;-75
2021/09/23 04:21:51;;;;;;;16.52;10.57;;;11.10;74.40;;;;;;5036933;28;20034;-75
2021/09/23 04:24:18;;;;;;;18.58;12.02;;;11.10;75.00;;;;;;5037030;28;20014;-75
2021/09/23 04:26:45;;;;;;;18.00;11.52;;;11.20;77.90;;;;;;5036902;28;20049;-74
2021/09/23 04:29:11;;;;;;;19.63;11.93;;;11.20;78.80;;;;;;5036828;28;20025;-74
2021/09/23 04:31:37;;;;;;;17.73;12.35;;;11.20;78.40;;;;;;5036862;28;20014;-74
2021/09/23 04:34:02;;;;;;;18.73;12.80;;;11.20;79.30;;;;;;5036685;28;20017;-75
2021/09/23 04:36:28;;;;;;;19.08;12.15;;;11.20;79.50;;;;;;5036826;28;20093;-75
2021/09/23 04:38:54;;;;;;;17.60;10.98;;;11.20;79.30;;;;;;5036826;28;20028;-74
2021/09/23 04:41:20;;;;;;;17.08;11.68;;;11.20;78.60;;;;;;5035722;28;20091;-75
2021/09/23 04:43:49;;;;;;;18.60;12.45;;;11.20;79.10;;;;;;5035297;28;20029;-76
2021/09/23 04:46:21;;;;;;;19.27;12.93;;;11.10;80.00;;;;;;5036796;28;20033;-75
2021/09/23 04:48:50;;;;;;;21.23;13.38;;;11.10;80.60;;;;;;5038036;28;20042;-76
2021/09/23 04:51:17;;;;;;;21.02;13.63;;;11.00;79.90;;;;;;5040786;28;20018;-76
2021/09/23 04:53:43;;;;;;;22.20;14.10;;;11.00;80.40;;;;;;5040519;28;20475;-75
2021/09/23 04:56:08;;;;;;;20.25;13.60;;;11.00;80.20;;;;;;5040731;28;20026;-78
2021/09/23 04:58:34;;;;;;;23.63;15.45;;;11.00;80.90;;;;;;5039058;28;20030;-79
2021/09/23 05:01:00;;;;;;;22.13;14.75;;;11.00;81.40;;;;;;5040611;28;20033;-77
2021/09/23 05:03:26;;;;;;;24.90;14.80;;;11.00;81.70;;;;;;5040316;28;20475;-79
2021/09/23 05:05:51;;;;;;;21.30;13.80;;;10.90;80.40;;;;;;5040394;28;20025;-77
2021/09/23 05:08:17;;;;;;;22.30;13.85;;;10.90;79.80;;;;;;5040419;28;20029;-77
2021/09/23 05:10:43;;;;;;;23.35;15.18;;;10.90;79.80;;;;;;5040263;28;20394;-75
2021/09/23 05:13:09;;;;;;;23.80;14.25;;;10.90;80.50;;;;;;5040026;28;20072;-74
2021/09/23 05:15:36;;;;;;;23.15;14.55;;;10.80;79.00;;;;;;5039853;28;20033;-76
2021/09/23 05:18:03;;;;;;;22.50;14.25;;;10.80;79.90;;;;;;5039879;28;20124;-78
2021/09/23 05:20:28;;;;;;;21.35;13.90;;;10.90;81.00;;;;;;5039973;28;20057;-77
2021/09/23 05:22:54;;;;;;;19.48;13.13;;;10.90;81.50;;;;;;5039867;28;20033;-75
2021/09/23 05:25:21;;;;;;;20.45;13.55;;;10.80;79.80;;;;;;5040094;28;20492;-75
2021/09/23 05:27:47;;;;;;;18.65;11.82;;;10.80;80.40;;;;;;5038519;28;20083;-75
2021/09/23 05:30:13;;;;;;;21.50;13.70;;;10.80;79.00;;;;;;5039688;28;20096;-75
2021/09/23 05:32:40;;;;;;;21.88;13.43;;;10.70;79.40;;;;;;5038568;28;20465;-75
2021/09/23 05:35:07;;;;;;;20.23;13.27;;;10.70;78.40;;;;;;5039475;28;20042;-76
2021/09/23 05:37:33;;;;;;;21.70;13.73;;;10.70;79.70;;;;;;5039597;28;20432;-76
2021/09/23 05:39:58;;;;;;;20.73;13.73;;;10.70;79.40;;;;;;5039918;28;20045;-75
2021/09/23 05:42:24;;;;;;;19.63;13.25;;;10.60;79.10;;;;;;5038202;28;20031;-75
2021/09/23 05:44:51;;;;;;;20.83;12.63;;;10.60;78.80;;;;;;5039532;28;20026;-75
2021/09/23 05:47:17;;;;;;;19.98;12.07;;;10.60;78.90;;;;;;5038206;28;20037;-77
2021/09/23 05:49:43;;;;;;;23.65;13.27;;;10.50;77.70;;;;;;5038125;28;20030;-76
2021/09/23 05:52:09;;;;;;;20.15;12.10;;;10.50;77.30;;;;;;5039305;28;20029;-75
2021/09/23 05:54:35;;;;;;;16.77;10.55;;;10.40;76.20;;;;;;5038324;28;20100;-76
2021/09/23 05:57:01;;;;;;;16.77;10.90;;;10.40;75.60;;;;;;5038834;28;20503;-75
2021/09/23 05:59:27;;;;;;;17.67;11.07;;;10.40;75.40;;;;;;5037830;28;20025;-76
2021/09/23 06:01:57;;;;;;;21.58;13.52;;;10.40;74.80;;;;;;5038101;28;20036;-75
2021/09/23 06:04:23;;;;;;;18.92;12.00;;;10.40;77.00;;;;;;5039168;28;20021;-75
2021/09/23 06:06:50;;;;;;;24.38;16.40;;;10.40;75.60;;;;;;5038027;28;20025;-75
2021/09/23 06:09:16;;;;;;;24.13;14.60;;;10.40;78.40;;;;;;5037666;28;20463;-75
2021/09/23 06:11:42;;;;;;;26.85;16.48;;;10.40;78.60;;;;;;5039169;28;20029;-74
2021/09/23 06:14:08;;;;;;;22.00;13.93;;;10.50;80.60;;;;;;5038629;28;20092;-74
2021/09/23 06:16:34;;;;;;;22.17;14.18;;;10.50;80.10;;;;;;5037874;28;20056;-74
2021/09/23 06:19:00;;;;;;;22.05;13.77;;;10.50;79.80;;;;;;5038617;28;20369;-74
2021/09/23 06:21:26;;;;;;;20.83;13.05;;;10.40;79.10;;;;;;5038727;28;20117;-74
2021/09/23 06:23:53;;;;;;;19.25;12.18;;;10.40;77.80;;;;;;5037792;28;20056;-74
2021/09/23 06:26:19;;;;;;;18.65;12.07;;;10.40;77.00;;;;;;5038564;28;20052;-74
2021/09/23 06:28:46;;;;;;;17.48;11.15;;;10.40;76.30;;;;;;5038762;28;20028;-74
2021/09/23 06:31:12;;;;;;;20.92;13.82;;;10.40;75.90;;;;;;5038579;28;20491;-74
2021/09/23 06:33:38;;;;;;;26.10;15.15;;;10.50;76.90;;;;;;5038528;28;20056;-74
2021/09/23 06:36:03;;;;;;;21.58;14.57;;;10.50;79.40;;;;;;5038375;28;20052;-74
2021/09/23 06:38:29;;;;;;;20.10;13.15;;;10.60;80.10;;;;;;5038567;28;20072;-74
2021/09/23 06:40:56;;;;;;;21.77;14.75;;;10.60;79.70;;;;;;5037521;28;20018;-74
2021/09/23 06:43:22;;;;;;;23.60;13.88;;;10.60;79.60;;;;;;5038345;28;20116;-74
2021/09/23 06:45:49;;;;;;;23.98;15.77;;;10.70;80.00;;;;;;5037097;28;20025;-74
2021/09/23 06:48:15;;;;;;;24.65;16.23;;;10.80;80.60;;;;;;5037168;28;20116;-74
2021/09/23 06:50:41;;;;;;;24.40;15.13;;;10.80;82.00;;;;;;5038503;28;20033;-74
2021/09/23 06:53:07;;;;;;;22.00;14.73;;;10.80;81.40;;;;;;5038306;28;20025;-74
2021/09/23 06:55:33;;;;;;;25.10;16.05;;;10.80;80.20;;;;;;5038147;28;20072;-74
2021/09/23 06:57:58;;;;;;;25.60;16.33;;;10.90;81.00;;;;;;5038288;28;20025;-74
2021/09/23 07:00:26;;;;;;;24.27;15.85;;;10.90;81.50;;;;;;5037835;28;20037;-74
2021/09/23 07:02:52;;;;;;;23.27;13.98;;;11.00;81.70;;;;;;5038353;28;20173;-74
2021/09/23 07:05:18;;;;;;;22.55;14.95;;;11.00;81.30;;;;;;5038062;28;20025;-74
2021/09/23 07:07:44;;;;;;;25.50;15.20;;;11.10;81.20;;;;;;5036737;28;20033;-74
2021/09/23 07:10:10;;;;;;;23.83;13.13;;;11.20;81.60;;;;;;5037659;28;20054;-74
2021/09/23 07:12:36;;;;;;;23.10;13.55;;;11.20;81.10;;;;;;5037962;28;20109;-74
2021/09/23 07:15:02;;;;;;;25.23;15.82;;;11.20;80.60;;;;;;5037614;28;20052;-74
2021/09/23 07:17:28;;;;;;;24.33;15.98;;;11.30;81.10;;;;;;5038145;28;20108;-74
2021/09/23 07:19:54;;;;;;;26.73;17.20;;;11.30;81.40;;;;;;5036446;28;20093;-74
2021/09/23 07:22:20;;;;;;;25.50;17.10;;;11.40;81.70;;;;;;5036923;28;20184;-74
2021/09/23 07:24:46;;;;;;;25.15;15.73;;;11.50;82.40;;;;;;5036162;28;20040;-74
2021/09/23 07:27:12;;;;;;;28.33;17.27;;;11.50;81.90;;;;;;5037999;28;20033;-74
2021/09/23 07:29:37;;;;;;;24.58;17.00;;;11.60;81.40;;;;;;5037271;28;20018;-74
2021/09/23 07:32:04;;;;;;;26.60;16.88;;;11.70;82.10;;;;;;5036551;28;20025;-74
2021/09/23 07:34:29;;;;;;;24.83;16.13;;;11.70;82.10;;;;;;5037407;28;20091;-74
2021/09/23 07:36:55;;;;;;;24.23;15.77;;;11.80;81.10;;;;;;5036404;28;20049;-74
2021/09/23 07:39:21;;;;;;;22.98;15.25;;;11.80;79.90;;;;;;5037417;28;20025;-74
2021/09/23 07:41:47;;;;;;;28.38;18.58;;;11.90;81.00;;;;;;5036547;28;20064;-74
2021/09/23 07:44:14;;;;;;;26.23;16.95;;;12.00;82.90;;;;;;5035748;28;20029;-74
2021/09/23 07:46:42;;;;;;;26.95;18.27;;;12.10;82.30;;;;;;5037476;28;20452;-74
2021/09/23 07:49:08;;;;;;;25.38;17.08;;;12.10;83.00;;;;;;5037305;28;20017;-74
2021/09/23 07:51:34;;;;;;;29.13;18.40;;;12.20;83.10;;;;;;5037418;28;20026;-74
2021/09/23 07:54:01;;;;;;;28.52;18.88;;;12.30;82.80;;;;;;5037159;28;20255;-74
2021/09/23 07:56:27;;;;;;;28.20;18.10;;;12.40;82.90;;;;;;5037269;28;20480;-74
2021/09/23 07:58:52;;;;;;;26.85;17.95;;;12.40;82.00;;;;;;5036903;28;20029;-74
2021/09/23 08:01:18;;;;;;;30.27;20.02;;;12.50;82.30;;;;;;5036192;28;20431;-74
2021/09/23 08:03:44;;;;;;;33.17;19.55;;;12.60;83.10;;;;;;5037381;28;20407;-74
2021/09/23 08:06:10;;;;;;;34.45;22.33;;;12.80;83.60;;;;;;5036106;28;20479;-75
2021/09/23 08:08:36;;;;;;;30.38;20.40;;;12.90;84.40;;;;;;5035544;28;20026;-75
2021/09/23 08:11:02;;;;;;;31.55;20.02;;;13.10;84.00;;;;;;5035989;28;20077;-75
2021/09/23 08:13:28;;;;;;;29.20;17.20;;;13.20;83.80;;;;;;5035440;28;20021;-75
2021/09/23 08:15:54;;;;;;;27.60;18.20;;;13.40;82.60;;;;;;5036060;28;20105;-75
2021/09/23 08:18:20;;;;;;;26.88;17.63;;;13.90;83.00;;;;;;5036996;28;20017;-75
2021/09/23 08:20:46;;;;;;;27.10;16.27;;;14.60;82.90;;;;;;5035775;28;20061;-75
2021/09/23 08:23:13;;;;;;;23.80;16.08;;;15.60;82.40;;;;;;5037123;28;20029;-75
2021/09/23 08:25:39;;;;;;;20.77;13.50;;;16.70;81.00;;;;;;5040846;28;20025;-76
2021/09/23 08:28:07;;;;;;;26.15;16.23;;;17.70;79.20;;;;;;5040892;28;20056;-76
2021/09/23 08:30:33;;;;;;;24.30;15.88;;;18.70;77.10;;;;;;5040851;28;20022;-76
2021/09/23 08:32:59;;;;;;;21.98;14.57;;;19.60;74.50;;;;;;5040638;28;20109;-76
2021/09/23 08:35:24;;;;;;;21.13;14.73;;;20.30;73.80;;;;;;5040857;28;20037;-73
2021/09/23 08:37:50;;;;;;;20.50;14.77;;;21.10;73.00;;;;;;5040622;28;20021;-73
2021/09/23 08:40:16;;;;;;;17.50;12.68;;;21.80;70.70;;;;;;5040734;28;20125;-74
2021/09/23 08:42:44;;;;;;;21.58;14.90;;;22.30;70.20;;;;;;5040469;28;20025;-73
2021/09/23 08:45:12;;;;;;;14.07;11.18;;;23.10;67.80;;;;;;5040343;28;20464;-74
2021/09/23 08:47:38;;;;;;;18.15;13.50;;;23.40;67.30;;;;;;5040425;28;20037;-74
2021/09/23 08:50:08;;;;;;;17.40;12.20;;;23.90;66.40;;;;;;5039692;28;20118;-74
2021/09/23 08:52:35;;;;;;;14.68;10.68;;;24.20;66.30;;;;;;5040308;28;20017;-73
2021/09/23 08:55:03;;;;;;;16.10;11.75;;;24.70;65.70;;;;;;5040539;28;20544;-74
2021/09/23 08:57:29;;;;;;;14.57;9.95;;;25.10;64.00;;;;;;5040274;28;20017;-74
2021/09/23 08:59:55;;;;;;;13.32;8.77;;;25.60;63.10;;;;;;5040261;28;20454;-74
2021/09/23 09:02:26;;;;;;;12.15;8.90;;;25.90;63.40;;;;;;5040118;28;20029;-73
2021/09/23 09:04:54;;;;;;;13.70;9.10;;;26.20;63.10;;;;;;5040253;28;20027;-74
2021/09/23 09:07:26;;;;;;;10.52;7.97;;;26.50;61.20;;;;;;5040075;28;20030;-74
2021/09/23 09:10:09;;;;;;;11.25;8.65;;;26.70;61.10;;;;;;5039063;28;20025;-80
2021/09/23 09:12:39;;;;;;;14.73;10.10;;;26.80;59.60;;;;;;5039218;28;20125;-74
2021/09/23 09:15:05;;;;;;;32.38;27.67;;;26.90;59.70;;;;;;5038399;28;20025;-74
2021/09/23 09:17:36;;;;;;;19.13;15.55;;;26.70;56.70;;;;;;5039093;28;20029;-74
2021/09/23 09:20:05;;;;;;;15.10;10.10;;;26.30;56.90;;;;;;5037659;28;20025;-74
2021/09/23 09:22:33;;;;;;;11.30;8.52;;;25.70;56.10;;;;;;5034142;28;20044;-73
2021/09/23 09:25:00;;;;;;;11.65;8.18;;;25.10;56.00;;;;;;5036231;28;20055;-73
2021/09/23 09:27:40;;;;;;;11.13;7.55;;;24.60;57.40;;;;;;5037986;28;20568;-73
2021/09/23 09:30:14;;;;;;;13.38;7.85;;;24.20;57.50;;;;;;5036726;28;20109;-75
2021/09/23 09:32:46;;;;;;;10.55;7.60;;;24.10;59.00;;;;;;5038635;28;20029;-74
2021/09/23 09:35:30;;;;;;;11.50;7.82;;;24.20;58.70;;;;;;5036379;28;20045;-74
2021/09/23 09:37:59;;;;;;;13.73;8.48;;;24.30;58.70;;;;;;5037362;28;20071;-73
2021/09/23 09:40:27;;;;;;;9.77;6.85;;;24.60;57.90;;;;;;5036874;28;20033;-75
2021/09/23 09:42:55;;;;;;;10.30;7.15;;;25.00;58.30;;;;;;5034832;28;20040;-76
2021/09/23 09:45:26;;;;;;;11.07;6.68;;;25.40;58.10;;;;;;5053533;28;20029;-81
2021/09/23 09:47:53;;;;;;;9.95;6.88;;;26.00;57.80;;;;;;5032603;28;20029;-75
2021/09/23 09:50:24;;;;;;;9.00;6.72;;;26.70;56.80;;;;;;5030676;28;20030;-77
2021/09/23 09:52:56;;;;;;;8.68;6.22;;;27.30;56.00;;;;;;5039221;28;20021;-75
2021/09/23 09:55:23;;;;;;;8.32;5.55;;;27.90;54.50;;;;;;5039184;28;20177;-75
2021/09/23 09:57:51;;;;;;;9.48;5.18;;;28.40;53.00;;;;;;5038841;28;20067;-76
2021/09/23 10:00:17;;;;;;;7.22;4.50;;;28.80;52.50;;;;;;5036274;28;20033;-77
2021/09/23 10:02:47;;;;;;;8.32;5.47;;;28.90;51.40;;;;;;5038978;28;20021;-75
2021/09/23 10:05:14;;;;;;;7.47;4.50;;;28.90;51.20;;;;;;5038906;28;20018;-75
2021/09/23 10:07:44;;;;;;;7.40;4.50;;;28.80;51.50;;;;;;5037211;28;20142;-75
2021/09/23 10:10:11;;;;;;;7.75;4.60;;;28.70;50.50;;;;;;5052314;28;20031;-75
2021/09/23 10:12:41;;;;;;;7.30;4.15;;;28.70;51.20;;;;;;5049595;28;20026;-75
2021/09/23 10:15:09;;;;;;;8.25;4.43;;;29.00;51.10;;;;;;5029017;28;20018;-75
2021/09/23 10:17:36;;;;;;;9.63;4.20;;;29.10;50.80;;;;;;5038815;28;20033;-75
2021/09/23 10:20:07;;;;;;;6.85;4.07;;;29.10;50.20;;;;;;5035215;28;20045;-75
2021/09/23 10:22:33;;;;;;;6.57;4.10;;;28.80;50.20;;;;;;5037821;28;20048;-75
2021/09/23 10:25:01;;;;;;;8.35;4.10;;;28.80;50.70;;;;;;5033641;28;20069;-75
2021/09/23 10:30:13;;;;;;;8.73;4.20;;;29.50;50.80;;;;;;5030018;28;20063;-75
2021/09/23 10:32:40;;;;;;;7.30;4.05;;;30.00;51.30;;;;;;5038125;28;20017;-75
2021/09/23 10:35:06;;;;;;;6.88;4.25;;;30.40;50.30;;;;;;5036975;28;20037;-75
2021/09/23 10:37:33;;;;;;;7.60;3.90;;;30.20;48.90;;;;;;5038132;28;20041;-75
2021/09/23 10:40:00;;;;;;;7.10;4.25;;;29.80;49.00;;;;;;5038528;28;20481;-75
2021/09/23 10:42:26;;;;;;;6.38;4.38;;;29.50;49.60;;;;;;5047149;28;20021;-75
2021/09/23 10:44:54;;;;;;;8.10;5.05;;;29.20;49.50;;;;;;5039171;28;20076;-74
2021/09/23 10:47:38;;;;;;;6.82;4.07;;;28.80;48.10;;;;;;5041726;28;20436;-74
2021/09/23 10:50:06;;;;;;;8.07;4.22;;;28.50;49.80;;;;;;5030578;28;20030;-75
2021/09/23 10:52:34;;;;;;;5.97;3.92;;;28.50;49.70;;;;;;5036830;28;20018;-75
2021/09/23 10:55:05;;;;;;;7.43;3.92;;;28.40;49.40;;;;;;5037986;28;20037;-74
2021/09/23 10:57:32;;;;;;;7.72;4.22;;;28.20;49.80;;;;;;5037551;28;20022;-75
2021/09/23 11:00:05;;;;;;;6.00;3.80;;;28.30;50.40;;;;;;5037855;28;20159;-75
2021/09/23 11:02:32;;;;;;;8.30;3.80;;;28.80;50.70;;;;;;5037799;28;20029;-75
2021/09/23 11:05:00;;;;;;;8.32;4.38;;;29.30;50.50;;;;;;5036607;28;20040;-75
2021/09/23 11:07:29;;;;;;;7.70;3.63;;;29.60;48.90;;;;;;5038220;28;20026;-75
2021/09/23 11:10:04;;;;;;;7.30;3.95;;;29.60;49.20;;;;;;5033635;28;20033;-75
2021/09/23 11:12:31;;;;;;;7.45;3.83;;;29.50;49.40;;;;;;5037735;28;20022;-75
2021/09/23 11:14:58;;;;;;;7.38;3.53;;;29.70;49.60;;;;;;5037130;28;20053;-74
2021/09/23 11:17:27;;;;;;;7.75;3.90;;;29.50;49.20;;;;;;5044665;28;20480;-75
2021/09/23 11:20:04;;;;;;;9.23;5.13;;;29.60;49.30;;;;;;5040342;28;20061;-75
2021/09/23 11:22:36;;;;;;;7.65;3.55;;;29.60;47.40;;;;;;5044533;28;20048;-75
2021/09/23 11:25:06;;;;;;;5.15;3.17;;;29.30;47.60;;;;;;5019745;28;20205;-74
2021/09/23 11:27:33;;;;;;;8.15;3.35;;;28.90;47.70;;;;;;5031945;28;20036;-75
2021/09/23 11:29:59;;;;;;;7.30;3.28;;;28.40;48.10;;;;;;5035787;28;20029;-75
2021/09/23 11:32:25;;;;;;;7.85;2.92;;;28.40;49.30;;;;;;5037129;28;20025;-77
2021/09/23 11:35:03;;;;;;;5.85;2.90;;;28.70;49.70;;;;;;5036044;28;20037;-76
2021/09/23 11:37:33;;;;;;;5.78;3.03;;;29.00;47.60;;;;;;5037257;28;20028;-76
2021/09/23 11:40:04;;;;;;;7.32;2.70;;;29.40;47.80;;;;;;5037520;28;20026;-76
2021/09/23 11:42:36;;;;;;;8.63;2.78;;;29.80;47.50;;;;;;5035860;28;20030;-76
2021/09/23 11:45:20;;;;;;;7.10;2.90;;;29.90;47.00;;;;;;5035746;28;20116;-75
2021/09/23 11:47:52;;;;;;;7.50;3.03;;;29.60;46.60;;;;;;5036976;28;20021;-75
2021/09/23 11:50:27;;;;;;;6.80;2.38;;;29.20;47.00;;;;;;5034666;28;20563;-75
2021/09/23 11:52:57;;;;;;;7.65;2.97;;;29.00;47.50;;;;;;5037163;28;20056;-75
2021/09/23 11:55:23;;;;;;;5.97;2.60;;;29.10;47.90;;;;;;5036895;28;20029;-76
2021/09/23 11:58:03;;;;;;;6.55;2.53;;;29.30;48.10;;;;;;5035155;28;20018;-76
2021/09/23 12:00:34;;;;;;;6.03;2.63;;;29.60;48.20;;;;;;5036952;28;20027;-75
2021/09/23 12:03:00;;;;;;;4.47;2.28;;;29.50;48.30;;;;;;5037085;28;20026;-75
2021/09/23 12:05:29;;;;;;;4.30;2.53;;;29.40;47.50;;;;;;5036883;28;20029;-75
2021/09/23 12:07:55;;;;;;;6.40;2.53;;;29.30;47.70;;;;;;5036955;28;20159;-75
2021/09/23 12:10:22;;;;;;;5.65;2.67;;;29.40;47.90;;;;;;5035522;28;20041;-75
2021/09/23 12:12:58;;;;;;;5.85;2.90;;;29.50;47.90;;;;;;5035333;28;20021;-76
2021/09/23 12:15:28;;;;;;;6.68;2.28;;;29.60;47.10;;;;;;5037151;28;20021;-76
2021/09/23 12:17:55;;;;;;;4.57;1.95;;;29.80;47.20;;;;;;5036744;28;20080;-76
2021/09/23 12:20:36;;;;;;;5.10;2.28;;;29.90;47.00;;;;;;5037109;28;20029;-76
2021/09/23 12:23:22;;;;;;;6.38;2.70;;;29.90;46.70;;;;;;5036667;28;20036;-76
2021/09/23 12:26:13;;;;;;;4.47;2.53;;;30.00;46.60;;;;;;5025298;28;20096;-76
2021/09/23 12:29:04;;;;;;;4.75;2.53;;;30.10;47.40;;;;;;5026353;28;20025;-75
2021/09/23 12:31:41;;;;;;;6.93;2.15;;;30.10;46.50;;;;;;5025404;28;20037;-76
2021/09/23 12:34:18;;;;;;;7.28;2.72;;;30.20;46.90;;;;;;5031026;28;20512;-75
2021/09/23 12:37:01;;;;;;;7.40;2.28;;;30.20;46.50;;;;;;5037086;28;20376;-76
2021/09/23 12:39:38;;;;;;;4.35;2.28;;;30.20;46.80;;;;;;5035229;28;20037;-76